sensor_id;sensor_type;location;lat;lon;timestamp;P1;durP1;ratioP1;P2;durP2;ratioP2
77217;SDS011;66214;51.302;17.068;2023-12-20T00:00:41;13.40;;;7.00;;
77217;SDS011;66214;51.302;17.068;2023-12-20T00:03:40;12.50;;;7.00;;
77217;SDS011;66214;51.302;17.068;2023-12-20T00:06:09;15.30;;;8.10;;
77217;SDS011;66214;51.302;17.068;2023-12-20T00:08:37;14.50;;;7.90;;
77217;SDS011;66214;51.302;17.068;2023-12-20T00:11:05;14.80;;;7.60;;
77217;SDS011;66214;51.302;17.068;2023-12-20T00:13:33;14.10;;;7.60;;
77217;SDS011;66214;51.302;17.068;2023-12-20T00:19:14;12.00;;;6.50;;
77217;SDS011;66214;51.302;17.068;2023-12-20T00:21:42;9.00;;;4.50;;
77217;SDS011;66214;51.302;17.068;2023-12-20T00:24:10;12.70;;;6.40;;
77217;SDS011;66214;51.302;17.068;2023-12-20T00:26:38;12.30;;;6.30;;
77217;SDS011;66214;51.302;17.068;2023-12-20T00:29:06;11.70;;;6.20;;
77217;SDS011;66214;51.302;17.068;2023-12-20T00:31:34;11.70;;;5.30;;
77217;SDS011;66214;51.302;17.068;2023-12-20T00:34:03;10.60;;;5.60;;
77217;SDS011;66214;51.302;17.068;2023-12-20T00:36:31;9.80;;;4.50;;
77217;SDS011;66214;51.302;17.068;2023-12-20T00:38:59;9.80;;;5.00;;
77217;SDS011;66214;51.302;17.068;2023-12-20T00:41:28;9.00;;;4.60;;
77217;SDS011;66214;51.302;17.068;2023-12-20T00:47:08;8.80;;;3.90;;
77217;SDS011;66214;51.302;17.068;2023-12-20T00:49:36;7.00;;;3.30;;
77217;SDS011;66214;51.302;17.068;2023-12-20T00:52:05;8.70;;;4.30;;
77217;SDS011;66214;51.302;17.068;2023-12-20T00:54:33;7.50;;;3.70;;
77217;SDS011;66214;51.302;17.068;2023-12-20T01:00:17;7.20;;;3.70;;
77217;SDS011;66214;51.302;17.068;2023-12-20T01:02:45;7.30;;;3.80;;
77217;SDS011;66214;51.302;17.068;2023-12-20T01:05:20;7.50;;;3.50;;
77217;SDS011;66214;51.302;17.068;2023-12-20T01:07:50;8.20;;;3.50;;
77217;SDS011;66214;51.302;17.068;2023-12-20T01:10:18;7.60;;;3.60;;
77217;SDS011;66214;51.302;17.068;2023-12-20T01:12:46;9.80;;;3.70;;
77217;SDS011;66214;51.302;17.068;2023-12-20T01:15:15;7.80;;;3.40;;
77217;SDS011;66214;51.302;17.068;2023-12-20T01:21:10;6.90;;;3.40;;
77217;SDS011;66214;51.302;17.068;2023-12-20T01:23:39;6.80;;;3.50;;
77217;SDS011;66214;51.302;17.068;2023-12-20T01:26:23;7.10;;;3.30;;
77217;SDS011;66214;51.302;17.068;2023-12-20T01:28:51;6.50;;;3.50;;
77217;SDS011;66214;51.302;17.068;2023-12-20T01:31:19;6.20;;;3.10;;
77217;SDS011;66214;51.302;17.068;2023-12-20T01:33:47;5.50;;;2.90;;
77217;SDS011;66214;51.302;17.068;2023-12-20T01:36:15;7.00;;;2.80;;
77217;SDS011;66214;51.302;17.068;2023-12-20T01:38:42;8.30;;;3.70;;
77217;SDS011;66214;51.302;17.068;2023-12-20T01:41:10;7.00;;;3.50;;
77217;SDS011;66214;51.302;17.068;2023-12-20T01:43:38;8.50;;;3.50;;
77217;SDS011;66214;51.302;17.068;2023-12-20T01:46:06;6.80;;;3.40;;
77217;SDS011;66214;51.302;17.068;2023-12-20T01:48:34;7.50;;;3.10;;
77217;SDS011;66214;51.302;17.068;2023-12-20T01:51:02;7.30;;;3.70;;
77217;SDS011;66214;51.302;17.068;2023-12-20T01:53:30;6.50;;;3.40;;
77217;SDS011;66214;51.302;17.068;2023-12-20T01:56:00;5.70;;;3.00;;
77217;SDS011;66214;51.302;17.068;2023-12-20T01:58:28;6.30;;;3.10;;
77217;SDS011;66214;51.302;17.068;2023-12-20T02:00:56;7.00;;;3.10;;
77217;SDS011;66214;51.302;17.068;2023-12-20T02:03:24;7.50;;;3.70;;
77217;SDS011;66214;51.302;17.068;2023-12-20T02:05:52;7.20;;;3.50;;
77217;SDS011;66214;51.302;17.068;2023-12-20T02:08:20;6.50;;;3.50;;
77217;SDS011;66214;51.302;17.068;2023-12-20T02:10:48;7.50;;;3.90;;
77217;SDS011;66214;51.302;17.068;2023-12-20T02:13:16;7.90;;;3.60;;
77217;SDS011;66214;51.302;17.068;2023-12-20T02:15:44;7.40;;;3.60;;
77217;SDS011;66214;51.302;17.068;2023-12-20T02:18:12;8.00;;;3.90;;
77217;SDS011;66214;51.302;17.068;2023-12-20T02:20:42;6.40;;;3.10;;
77217;SDS011;66214;51.302;17.068;2023-12-20T02:23:10;6.40;;;3.20;;
77217;SDS011;66214;51.302;17.068;2023-12-20T02:25:38;9.80;;;4.70;;
77217;SDS011;66214;51.302;17.068;2023-12-20T02:28:06;9.40;;;4.00;;
77217;SDS011;66214;51.302;17.068;2023-12-20T02:30:34;6.70;;;3.40;;
77217;SDS011;66214;51.302;17.068;2023-12-20T02:33:02;8.10;;;3.90;;
77217;SDS011;66214;51.302;17.068;2023-12-20T02:35:31;6.60;;;3.30;;
77217;SDS011;66214;51.302;17.068;2023-12-20T02:37:59;7.20;;;3.20;;
77217;SDS011;66214;51.302;17.068;2023-12-20T02:40:26;5.50;;;2.60;;
77217;SDS011;66214;51.302;17.068;2023-12-20T02:42:54;8.20;;;3.50;;
77217;SDS011;66214;51.302;17.068;2023-12-20T02:45:22;9.10;;;4.00;;
77217;SDS011;66214;51.302;17.068;2023-12-20T02:47:50;7.80;;;3.10;;
77217;SDS011;66214;51.302;17.068;2023-12-20T02:50:17;6.60;;;3.20;;
77217;SDS011;66214;51.302;17.068;2023-12-20T02:52:45;6.80;;;2.80;;
77217;SDS011;66214;51.302;17.068;2023-12-20T02:55:13;8.10;;;3.60;;
77217;SDS011;66214;51.302;17.068;2023-12-20T02:57:41;6.70;;;2.50;;
77217;SDS011;66214;51.302;17.068;2023-12-20T03:00:09;5.10;;;2.30;;
77217;SDS011;66214;51.302;17.068;2023-12-20T03:02:38;4.30;;;1.60;;
77217;SDS011;66214;51.302;17.068;2023-12-20T03:05:06;5.60;;;2.20;;
77217;SDS011;66214;51.302;17.068;2023-12-20T03:07:34;5.00;;;2.00;;
77217;SDS011;66214;51.302;17.068;2023-12-20T03:10:03;6.40;;;2.40;;
77217;SDS011;66214;51.302;17.068;2023-12-20T03:12:32;5.00;;;2.30;;
77217;SDS011;66214;51.302;17.068;2023-12-20T03:14:59;4.30;;;1.70;;
77217;SDS011;66214;51.302;17.068;2023-12-20T03:17:27;4.50;;;2.10;;
77217;SDS011;66214;51.302;17.068;2023-12-20T03:19:55;6.60;;;2.50;;
77217;SDS011;66214;51.302;17.068;2023-12-20T03:22:23;5.70;;;2.20;;
77217;SDS011;66214;51.302;17.068;2023-12-20T03:24:51;4.60;;;2.00;;
77217;SDS011;66214;51.302;17.068;2023-12-20T03:27:18;5.10;;;1.90;;
77217;SDS011;66214;51.302;17.068;2023-12-20T03:29:46;4.50;;;1.80;;
77217;SDS011;66214;51.302;17.068;2023-12-20T03:32:14;4.40;;;1.90;;
77217;SDS011;66214;51.302;17.068;2023-12-20T03:34:41;4.90;;;2.20;;
77217;SDS011;66214;51.302;17.068;2023-12-20T03:37:09;4.90;;;2.10;;
77217;SDS011;66214;51.302;17.068;2023-12-20T03:39:37;5.00;;;2.00;;
77217;SDS011;66214;51.302;17.068;2023-12-20T03:42:05;5.30;;;2.10;;
77217;SDS011;66214;51.302;17.068;2023-12-20T03:44:33;4.80;;;2.00;;
77217;SDS011;66214;51.302;17.068;2023-12-20T03:47:00;4.90;;;2.00;;
77217;SDS011;66214;51.302;17.068;2023-12-20T03:49:28;4.90;;;1.80;;
77217;SDS011;66214;51.302;17.068;2023-12-20T03:51:56;5.50;;;1.70;;
77217;SDS011;66214;51.302;17.068;2023-12-20T03:54:24;3.60;;;1.80;;
77217;SDS011;66214;51.302;17.068;2023-12-20T03:56:52;4.00;;;1.90;;
77217;SDS011;66214;51.302;17.068;2023-12-20T03:59:20;8.30;;;2.00;;
77217;SDS011;66214;51.302;17.068;2023-12-20T04:01:47;3.50;;;1.80;;
77217;SDS011;66214;51.302;17.068;2023-12-20T04:04:15;4.90;;;2.00;;
77217;SDS011;66214;51.302;17.068;2023-12-20T04:06:43;3.70;;;1.70;;
77217;SDS011;66214;51.302;17.068;2023-12-20T04:09:11;5.40;;;1.60;;
77217;SDS011;66214;51.302;17.068;2023-12-20T04:11:39;4.70;;;2.00;;
77217;SDS011;66214;51.302;17.068;2023-12-20T04:14:07;4.60;;;1.90;;
77217;SDS011;66214;51.302;17.068;2023-12-20T04:16:35;5.00;;;2.20;;
77217;SDS011;66214;51.302;17.068;2023-12-20T04:19:02;5.80;;;2.60;;
77217;SDS011;66214;51.302;17.068;2023-12-20T04:21:30;4.60;;;1.90;;
77217;SDS011;66214;51.302;17.068;2023-12-20T04:23:59;5.40;;;2.10;;
77217;SDS011;66214;51.302;17.068;2023-12-20T04:26:34;5.40;;;2.40;;
77217;SDS011;66214;51.302;17.068;2023-12-20T04:29:02;5.80;;;2.00;;
77217;SDS011;66214;51.302;17.068;2023-12-20T04:31:30;4.40;;;2.10;;
77217;SDS011;66214;51.302;17.068;2023-12-20T04:33:58;5.40;;;2.50;;
77217;SDS011;66214;51.302;17.068;2023-12-20T04:36:26;5.10;;;2.30;;
77217;SDS011;66214;51.302;17.068;2023-12-20T04:38:54;6.00;;;2.80;;
77217;SDS011;66214;51.302;17.068;2023-12-20T04:41:22;5.80;;;2.10;;
77217;SDS011;66214;51.302;17.068;2023-12-20T04:43:50;5.80;;;2.60;;
77217;SDS011;66214;51.302;17.068;2023-12-20T04:46:18;4.70;;;2.00;;
77217;SDS011;66214;51.302;17.068;2023-12-20T04:48:47;4.50;;;2.00;;
77217;SDS011;66214;51.302;17.068;2023-12-20T04:51:15;6.40;;;2.60;;
77217;SDS011;66214;51.302;17.068;2023-12-20T04:53:43;5.30;;;2.20;;
77217;SDS011;66214;51.302;17.068;2023-12-20T04:56:11;5.20;;;2.40;;
77217;SDS011;66214;51.302;17.068;2023-12-20T04:58:39;4.70;;;2.30;;
77217;SDS011;66214;51.302;17.068;2023-12-20T05:03:38;5.80;;;2.40;;
77217;SDS011;66214;51.302;17.068;2023-12-20T05:06:06;6.50;;;2.70;;
77217;SDS011;66214;51.302;17.068;2023-12-20T05:08:34;5.80;;;2.20;;
77217;SDS011;66214;51.302;17.068;2023-12-20T05:11:03;6.40;;;2.70;;
77217;SDS011;66214;51.302;17.068;2023-12-20T05:13:31;6.30;;;2.90;;
77217;SDS011;66214;51.302;17.068;2023-12-20T05:15:59;5.40;;;2.50;;
77217;SDS011;66214;51.302;17.068;2023-12-20T05:18:27;6.60;;;2.90;;
77217;SDS011;66214;51.302;17.068;2023-12-20T05:20:56;6.60;;;2.80;;
77217;SDS011;66214;51.302;17.068;2023-12-20T05:23:25;6.80;;;3.50;;
77217;SDS011;66214;51.302;17.068;2023-12-20T05:25:53;5.10;;;2.10;;
77217;SDS011;66214;51.302;17.068;2023-12-20T05:28:21;6.30;;;3.00;;
77217;SDS011;66214;51.302;17.068;2023-12-20T05:30:50;6.80;;;3.20;;
77217;SDS011;66214;51.302;17.068;2023-12-20T05:33:45;6.50;;;2.70;;
77217;SDS011;66214;51.302;17.068;2023-12-20T05:36:13;6.60;;;3.20;;
77217;SDS011;66214;51.302;17.068;2023-12-20T05:38:42;7.50;;;3.50;;
77217;SDS011;66214;51.302;17.068;2023-12-20T05:41:11;6.40;;;3.00;;
77217;SDS011;66214;51.302;17.068;2023-12-20T05:43:39;5.90;;;2.50;;
77217;SDS011;66214;51.302;17.068;2023-12-20T05:46:10;6.30;;;2.60;;
77217;SDS011;66214;51.302;17.068;2023-12-20T05:48:40;7.10;;;3.90;;
77217;SDS011;66214;51.302;17.068;2023-12-20T05:51:11;6.90;;;3.40;;
77217;SDS011;66214;51.302;17.068;2023-12-20T05:53:40;5.80;;;2.90;;
77217;SDS011;66214;51.302;17.068;2023-12-20T05:56:08;6.00;;;2.60;;
77217;SDS011;66214;51.302;17.068;2023-12-20T05:58:38;7.20;;;3.00;;
77217;SDS011;66214;51.302;17.068;2023-12-20T06:01:08;6.60;;;3.70;;
77217;SDS011;66214;51.302;17.068;2023-12-20T06:03:36;6.80;;;3.20;;
77217;SDS011;66214;51.302;17.068;2023-12-20T06:06:06;8.20;;;3.50;;
77217;SDS011;66214;51.302;17.068;2023-12-20T06:08:37;8.00;;;3.10;;
77217;SDS011;66214;51.302;17.068;2023-12-20T06:11:05;7.10;;;3.30;;
77217;SDS011;66214;51.302;17.068;2023-12-20T06:13:33;9.80;;;4.60;;
77217;SDS011;66214;51.302;17.068;2023-12-20T06:16:02;9.80;;;4.10;;
77217;SDS011;66214;51.302;17.068;2023-12-20T06:18:31;6.90;;;3.40;;
77217;SDS011;66214;51.302;17.068;2023-12-20T06:20:59;8.40;;;3.80;;
77217;SDS011;66214;51.302;17.068;2023-12-20T06:23:28;7.10;;;3.00;;
77217;SDS011;66214;51.302;17.068;2023-12-20T06:25:57;6.10;;;3.50;;
77217;SDS011;66214;51.302;17.068;2023-12-20T06:28:25;6.80;;;3.00;;
77217;SDS011;66214;51.302;17.068;2023-12-20T06:30:53;7.60;;;3.70;;
77217;SDS011;66214;51.302;17.068;2023-12-20T06:33:23;9.10;;;4.10;;
77217;SDS011;66214;51.302;17.068;2023-12-20T06:35:57;11.00;;;5.30;;
77217;SDS011;66214;51.302;17.068;2023-12-20T06:38:26;7.90;;;4.10;;
77217;SDS011;66214;51.302;17.068;2023-12-20T06:40:58;7.70;;;3.50;;
77217;SDS011;66214;51.302;17.068;2023-12-20T06:43:27;10.80;;;4.70;;
77217;SDS011;66214;51.302;17.068;2023-12-20T06:45:56;11.10;;;5.10;;
77217;SDS011;66214;51.302;17.068;2023-12-20T06:48:28;13.00;;;5.30;;
77217;SDS011;66214;51.302;17.068;2023-12-20T06:50:56;9.10;;;4.20;;
77217;SDS011;66214;51.302;17.068;2023-12-20T06:53:34;12.40;;;5.50;;
77217;SDS011;66214;51.302;17.068;2023-12-20T06:56:02;11.30;;;4.90;;
77217;SDS011;66214;51.302;17.068;2023-12-20T06:58:31;9.20;;;3.80;;
77217;SDS011;66214;51.302;17.068;2023-12-20T07:00:59;8.90;;;4.10;;
77217;SDS011;66214;51.302;17.068;2023-12-20T07:03:27;10.10;;;4.30;;
77217;SDS011;66214;51.302;17.068;2023-12-20T07:05:58;10.00;;;4.50;;
77217;SDS011;66214;51.302;17.068;2023-12-20T07:08:28;9.30;;;4.10;;
77217;SDS011;66214;51.302;17.068;2023-12-20T07:10:56;11.30;;;4.10;;
77217;SDS011;66214;51.302;17.068;2023-12-20T07:13:27;11.00;;;4.40;;
77217;SDS011;66214;51.302;17.068;2023-12-20T07:16:21;11.00;;;4.30;;
77217;SDS011;66214;51.302;17.068;2023-12-20T07:18:50;11.00;;;4.30;;
77217;SDS011;66214;51.302;17.068;2023-12-20T07:21:28;9.40;;;3.40;;
77217;SDS011;66214;51.302;17.068;2023-12-20T07:24:24;14.70;;;5.30;;
77217;SDS011;66214;51.302;17.068;2023-12-20T07:27:04;6.80;;;2.80;;
77217;SDS011;66214;51.302;17.068;2023-12-20T07:30:04;14.80;;;5.20;;
77217;SDS011;66214;51.302;17.068;2023-12-20T07:32:45;14.80;;;4.60;;
77217;SDS011;66214;51.302;17.068;2023-12-20T07:35:24;13.40;;;3.70;;
77217;SDS011;66214;51.302;17.068;2023-12-20T07:37:53;9.50;;;3.40;;
77217;SDS011;66214;51.302;17.068;2023-12-20T07:40:25;13.10;;;4.50;;
77217;SDS011;66214;51.302;17.068;2023-12-20T07:42:57;12.10;;;4.70;;
77217;SDS011;66214;51.302;17.068;2023-12-20T07:45:38;16.00;;;4.30;;
77217;SDS011;66214;51.302;17.068;2023-12-20T07:48:08;8.10;;;3.00;;
77217;SDS011;66214;51.302;17.068;2023-12-20T07:50:37;13.70;;;4.00;;
77217;SDS011;66214;51.302;17.068;2023-12-20T07:53:08;14.00;;;4.70;;
77217;SDS011;66214;51.302;17.068;2023-12-20T07:55:39;7.40;;;3.00;;
77217;SDS011;66214;51.302;17.068;2023-12-20T07:58:11;9.10;;;3.30;;
77217;SDS011;66214;51.302;17.068;2023-12-20T08:03:49;9.80;;;3.40;;
77217;SDS011;66214;51.302;17.068;2023-12-20T08:06:44;13.20;;;5.30;;
77217;SDS011;66214;51.302;17.068;2023-12-20T08:09:14;9.30;;;3.20;;
77217;SDS011;66214;51.302;17.068;2023-12-20T08:15:19;11.60;;;3.90;;
77217;SDS011;66214;51.302;17.068;2023-12-20T08:18:17;7.00;;;3.10;;
77217;SDS011;66214;51.302;17.068;2023-12-20T08:24:07;10.80;;;4.30;;
77217;SDS011;66214;51.302;17.068;2023-12-20T08:26:36;9.50;;;3.60;;
77217;SDS011;66214;51.302;17.068;2023-12-20T08:29:55;9.10;;;3.30;;
77217;SDS011;66214;51.302;17.068;2023-12-20T08:32:54;9.80;;;4.10;;
77217;SDS011;66214;51.302;17.068;2023-12-20T08:35:28;6.70;;;3.20;;
77217;SDS011;66214;51.302;17.068;2023-12-20T08:37:57;6.60;;;3.00;;
77217;SDS011;66214;51.302;17.068;2023-12-20T08:40:51;8.60;;;2.70;;
77217;SDS011;66214;51.302;17.068;2023-12-20T08:43:19;7.30;;;3.10;;
77217;SDS011;66214;51.302;17.068;2023-12-20T08:46:21;12.70;;;4.70;;
77217;SDS011;66214;51.302;17.068;2023-12-20T08:48:49;17.30;;;6.40;;
77217;SDS011;66214;51.302;17.068;2023-12-20T08:51:18;14.20;;;4.90;;
77217;SDS011;66214;51.302;17.068;2023-12-20T08:54:37;10.00;;;4.10;;
77217;SDS011;66214;51.302;17.068;2023-12-20T08:57:36;11.80;;;4.60;;
77217;SDS011;66214;51.302;17.068;2023-12-20T09:00:08;10.70;;;4.20;;
77217;SDS011;66214;51.302;17.068;2023-12-20T09:02:49;12.00;;;4.50;;
77217;SDS011;66214;51.302;17.068;2023-12-20T09:05:22;9.80;;;4.10;;
77217;SDS011;66214;51.302;17.068;2023-12-20T09:08:00;11.10;;;4.30;;
77217;SDS011;66214;51.302;17.068;2023-12-20T09:10:28;11.50;;;4.50;;
77217;SDS011;66214;51.302;17.068;2023-12-20T09:12:56;8.60;;;3.30;;
77217;SDS011;66214;51.302;17.068;2023-12-20T09:15:26;10.30;;;4.40;;
77217;SDS011;66214;51.302;17.068;2023-12-20T09:17:55;7.50;;;3.40;;
77217;SDS011;66214;51.302;17.068;2023-12-20T09:20:23;8.90;;;3.30;;
77217;SDS011;66214;51.302;17.068;2023-12-20T09:22:51;9.10;;;3.50;;
77217;SDS011;66214;51.302;17.068;2023-12-20T09:25:19;9.00;;;3.20;;
77217;SDS011;66214;51.302;17.068;2023-12-20T09:27:48;9.00;;;3.50;;
77217;SDS011;66214;51.302;17.068;2023-12-20T09:30:18;6.30;;;3.20;;
77217;SDS011;66214;51.302;17.068;2023-12-20T09:32:47;11.50;;;3.90;;
77217;SDS011;66214;51.302;17.068;2023-12-20T09:35:15;9.10;;;3.60;;
77217;SDS011;66214;51.302;17.068;2023-12-20T09:37:44;10.20;;;4.10;;
77217;SDS011;66214;51.302;17.068;2023-12-20T09:40:23;10.90;;;3.70;;
77217;SDS011;66214;51.302;17.068;2023-12-20T09:43:10;8.40;;;3.00;;
77217;SDS011;66214;51.302;17.068;2023-12-20T09:45:41;9.20;;;3.60;;
77217;SDS011;66214;51.302;17.068;2023-12-20T09:48:18;8.30;;;3.50;;
77217;SDS011;66214;51.302;17.068;2023-12-20T09:50:50;8.50;;;3.90;;
77217;SDS011;66214;51.302;17.068;2023-12-20T09:53:19;10.20;;;3.40;;
77217;SDS011;66214;51.302;17.068;2023-12-20T09:55:47;6.40;;;3.00;;
77217;SDS011;66214;51.302;17.068;2023-12-20T09:58:21;7.80;;;2.90;;
77217;SDS011;66214;51.302;17.068;2023-12-20T10:00:51;9.30;;;3.40;;
77217;SDS011;66214;51.302;17.068;2023-12-20T10:03:25;8.80;;;3.70;;
77217;SDS011;66214;51.302;17.068;2023-12-20T10:05:59;9.90;;;3.50;;
77217;SDS011;66214;51.302;17.068;2023-12-20T10:08:43;12.10;;;4.60;;
77217;SDS011;66214;51.302;17.068;2023-12-20T10:11:15;10.50;;;4.50;;
77217;SDS011;66214;51.302;17.068;2023-12-20T10:13:43;10.10;;;4.10;;
77217;SDS011;66214;51.302;17.068;2023-12-20T10:16:13;6.80;;;2.90;;
77217;SDS011;66214;51.302;17.068;2023-12-20T10:18:47;8.60;;;3.40;;
77217;SDS011;66214;51.302;17.068;2023-12-20T10:21:17;10.30;;;3.10;;
77217;SDS011;66214;51.302;17.068;2023-12-20T10:23:53;7.10;;;2.80;;
77217;SDS011;66214;51.302;17.068;2023-12-20T10:26:30;11.00;;;3.90;;
77217;SDS011;66214;51.302;17.068;2023-12-20T10:29:00;10.70;;;4.50;;
77217;SDS011;66214;51.302;17.068;2023-12-20T10:38:23;5.80;;;1.90;;
77217;SDS011;66214;51.302;17.068;2023-12-20T10:40:57;10.30;;;3.10;;
77217;SDS011;66214;51.302;17.068;2023-12-20T10:43:47;5.80;;;1.90;;
77217;SDS011;66214;51.302;17.068;2023-12-20T10:46:18;6.10;;;1.90;;
77217;SDS011;66214;51.302;17.068;2023-12-20T10:48:52;6.70;;;2.10;;
77217;SDS011;66214;51.302;17.068;2023-12-20T10:54:18;6.50;;;1.50;;
77217;SDS011;66214;51.302;17.068;2023-12-20T10:56:54;7.20;;;2.70;;
77217;SDS011;66214;51.302;17.068;2023-12-20T10:59:28;6.20;;;1.60;;
77217;SDS011;66214;51.302;17.068;2023-12-20T11:03:53;5.30;;;1.20;;
77217;SDS011;66214;51.302;17.068;2023-12-20T11:12:13;7.80;;;2.20;;
77217;SDS011;66214;51.302;17.068;2023-12-20T11:14:51;9.60;;;2.20;;
77217;SDS011;66214;51.302;17.068;2023-12-20T11:17:26;8.70;;;2.00;;
77217;SDS011;66214;51.302;17.068;2023-12-20T11:22:29;6.10;;;2.20;;
77217;SDS011;66214;51.302;17.068;2023-12-20T11:25:10;8.10;;;2.00;;
77217;SDS011;66214;51.302;17.068;2023-12-20T11:28:08;7.40;;;1.70;;
77217;SDS011;66214;51.302;17.068;2023-12-20T11:30:45;7.60;;;2.10;;
77217;SDS011;66214;51.302;17.068;2023-12-20T11:33:15;13.50;;;4.20;;
77217;SDS011;66214;51.302;17.068;2023-12-20T11:35:45;11.80;;;3.60;;
77217;SDS011;66214;51.302;17.068;2023-12-20T11:38:16;8.90;;;2.10;;
77217;SDS011;66214;51.302;17.068;2023-12-20T11:40:48;11.00;;;2.40;;
77217;SDS011;66214;51.302;17.068;2023-12-20T11:43:54;6.90;;;2.20;;
77217;SDS011;66214;51.302;17.068;2023-12-20T11:46:26;7.80;;;2.20;;
77217;SDS011;66214;51.302;17.068;2023-12-20T11:49:01;10.50;;;2.30;;
77217;SDS011;66214;51.302;17.068;2023-12-20T11:51:31;6.70;;;2.20;;
77217;SDS011;66214;51.302;17.068;2023-12-20T11:53:59;7.00;;;2.30;;
77217;SDS011;66214;51.302;17.068;2023-12-20T11:59:48;6.90;;;2.50;;
77217;SDS011;66214;51.302;17.068;2023-12-20T12:02:17;6.40;;;2.10;;
77217;SDS011;66214;51.302;17.068;2023-12-20T12:04:48;8.80;;;2.80;;
77217;SDS011;66214;51.302;17.068;2023-12-20T12:07:17;4.30;;;1.60;;
77217;SDS011;66214;51.302;17.068;2023-12-20T12:09:50;7.10;;;2.10;;
77217;SDS011;66214;51.302;17.068;2023-12-20T12:12:20;7.30;;;2.80;;
77217;SDS011;66214;51.302;17.068;2023-12-20T12:18:06;7.70;;;2.30;;
77217;SDS011;66214;51.302;17.068;2023-12-20T12:20:35;8.50;;;2.50;;
77217;SDS011;66214;51.302;17.068;2023-12-20T12:23:05;7.70;;;2.70;;
77217;SDS011;66214;51.302;17.068;2023-12-20T12:25:36;10.00;;;3.00;;
77217;SDS011;66214;51.302;17.068;2023-12-20T12:28:07;8.50;;;2.70;;
77217;SDS011;66214;51.302;17.068;2023-12-20T12:30:36;8.60;;;2.80;;
77217;SDS011;66214;51.302;17.068;2023-12-20T12:33:07;7.90;;;2.50;;
77217;SDS011;66214;51.302;17.068;2023-12-20T12:36:01;7.00;;;1.90;;
77217;SDS011;66214;51.302;17.068;2023-12-20T12:38:33;7.20;;;2.60;;
77217;SDS011;66214;51.302;17.068;2023-12-20T12:41:04;6.20;;;2.40;;
77217;SDS011;66214;51.302;17.068;2023-12-20T12:43:35;7.00;;;2.30;;
77217;SDS011;66214;51.302;17.068;2023-12-20T12:46:09;9.80;;;3.00;;
77217;SDS011;66214;51.302;17.068;2023-12-20T12:48:39;6.50;;;2.30;;
77217;SDS011;66214;51.302;17.068;2023-12-20T12:51:09;11.10;;;2.80;;
77217;SDS011;66214;51.302;17.068;2023-12-20T12:53:41;7.70;;;2.80;;
77217;SDS011;66214;51.302;17.068;2023-12-20T12:56:36;8.40;;;3.20;;
77217;SDS011;66214;51.302;17.068;2023-12-20T12:59:56;6.00;;;2.20;;
77217;SDS011;66214;51.302;17.068;2023-12-20T13:02:28;7.40;;;2.40;;
77217;SDS011;66214;51.302;17.068;2023-12-20T13:08:44;6.70;;;2.50;;
77217;SDS011;66214;51.302;17.068;2023-12-20T13:11:19;8.60;;;3.50;;
77217;SDS011;66214;51.302;17.068;2023-12-20T13:14:18;9.20;;;2.60;;
77217;SDS011;66214;51.302;17.068;2023-12-20T13:16:48;9.00;;;3.30;;
77217;SDS011;66214;51.302;17.068;2023-12-20T13:19:40;9.20;;;3.00;;
77217;SDS011;66214;51.302;17.068;2023-12-20T13:22:35;9.20;;;3.60;;
77217;SDS011;66214;51.302;17.068;2023-12-20T13:25:10;8.40;;;3.50;;
77217;SDS011;66214;51.302;17.068;2023-12-20T13:27:38;11.60;;;4.30;;
77217;SDS011;66214;51.302;17.068;2023-12-20T13:30:10;12.60;;;4.40;;
77217;SDS011;66214;51.302;17.068;2023-12-20T13:32:44;9.60;;;2.60;;
77217;SDS011;66214;51.302;17.068;2023-12-20T13:35:17;8.70;;;2.40;;
77217;SDS011;66214;51.302;17.068;2023-12-20T13:38:13;5.80;;;2.60;;
77217;SDS011;66214;51.302;17.068;2023-12-20T13:40:44;7.90;;;2.50;;
77217;SDS011;66214;51.302;17.068;2023-12-20T13:43:15;12.80;;;4.00;;
77217;SDS011;66214;51.302;17.068;2023-12-20T13:45:48;9.20;;;2.60;;
77217;SDS011;66214;51.302;17.068;2023-12-20T13:48:16;9.50;;;3.30;;
77217;SDS011;66214;51.302;17.068;2023-12-20T13:50:44;10.40;;;4.00;;
77217;SDS011;66214;51.302;17.068;2023-12-20T13:53:14;15.50;;;7.20;;
77217;SDS011;66214;51.302;17.068;2023-12-20T13:55:41;15.40;;;5.10;;
77217;SDS011;66214;51.302;17.068;2023-12-20T13:58:11;17.30;;;5.10;;
77217;SDS011;66214;51.302;17.068;2023-12-20T14:03:53;14.10;;;3.80;;
77217;SDS011;66214;51.302;17.068;2023-12-20T14:06:27;12.00;;;3.80;;
77217;SDS011;66214;51.302;17.068;2023-12-20T14:08:57;14.70;;;3.80;;
77217;SDS011;66214;51.302;17.068;2023-12-20T14:11:26;10.80;;;4.00;;
77217;SDS011;66214;51.302;17.068;2023-12-20T14:13:56;9.60;;;3.00;;
77217;SDS011;66214;51.302;17.068;2023-12-20T14:18:54;10.10;;;2.60;;
77217;SDS011;66214;51.302;17.068;2023-12-20T14:21:25;13.20;;;4.10;;
77217;SDS011;66214;51.302;17.068;2023-12-20T14:23:54;12.50;;;3.60;;
77217;SDS011;66214;51.302;17.068;2023-12-20T14:26:22;7.10;;;2.10;;
77217;SDS011;66214;51.302;17.068;2023-12-20T14:28:51;9.80;;;3.40;;
77217;SDS011;66214;51.302;17.068;2023-12-20T14:31:21;10.90;;;3.70;;
77217;SDS011;66214;51.302;17.068;2023-12-20T14:33:52;6.70;;;2.50;;
77217;SDS011;66214;51.302;17.068;2023-12-20T14:36:46;6.30;;;1.80;;
77217;SDS011;66214;51.302;17.068;2023-12-20T14:39:46;4.10;;;1.60;;
77217;SDS011;66214;51.302;17.068;2023-12-20T14:42:15;9.50;;;4.00;;
77217;SDS011;66214;51.302;17.068;2023-12-20T14:44:44;11.10;;;3.60;;
77217;SDS011;66214;51.302;17.068;2023-12-20T14:47:12;9.70;;;2.80;;
77217;SDS011;66214;51.302;17.068;2023-12-20T14:49:43;7.50;;;2.50;;
77217;SDS011;66214;51.302;17.068;2023-12-20T14:52:11;9.60;;;3.10;;
77217;SDS011;66214;51.302;17.068;2023-12-20T14:54:41;13.50;;;4.20;;
77217;SDS011;66214;51.302;17.068;2023-12-20T14:57:11;15.70;;;4.10;;
77217;SDS011;66214;51.302;17.068;2023-12-20T14:59:40;12.90;;;4.20;;
77217;SDS011;66214;51.302;17.068;2023-12-20T15:02:09;11.70;;;4.50;;
77217;SDS011;66214;51.302;17.068;2023-12-20T15:04:37;9.90;;;4.50;;
77217;SDS011;66214;51.302;17.068;2023-12-20T15:07:06;10.30;;;3.40;;
77217;SDS011;66214;51.302;17.068;2023-12-20T15:09:35;11.50;;;3.60;;
77217;SDS011;66214;51.302;17.068;2023-12-20T15:12:04;12.60;;;4.70;;
77217;SDS011;66214;51.302;17.068;2023-12-20T15:14:34;9.50;;;3.50;;
77217;SDS011;66214;51.302;17.068;2023-12-20T15:17:03;12.60;;;4.70;;
77217;SDS011;66214;51.302;17.068;2023-12-20T15:19:32;8.50;;;3.20;;
77217;SDS011;66214;51.302;17.068;2023-12-20T15:22:01;10.20;;;3.00;;
77217;SDS011;66214;51.302;17.068;2023-12-20T15:24:29;8.90;;;3.20;;
77217;SDS011;66214;51.302;17.068;2023-12-20T15:27:06;8.80;;;2.90;;
77217;SDS011;66214;51.302;17.068;2023-12-20T15:29:35;10.10;;;3.00;;
77217;SDS011;66214;51.302;17.068;2023-12-20T15:32:04;8.70;;;3.00;;
77217;SDS011;66214;51.302;17.068;2023-12-20T15:37:44;7.60;;;2.70;;
77217;SDS011;66214;51.302;17.068;2023-12-20T15:40:14;11.20;;;3.80;;
77217;SDS011;66214;51.302;17.068;2023-12-20T15:42:43;8.40;;;3.20;;
77217;SDS011;66214;51.302;17.068;2023-12-20T15:45:11;10.40;;;3.30;;
77217;SDS011;66214;51.302;17.068;2023-12-20T15:47:40;13.80;;;5.30;;
77217;SDS011;66214;51.302;17.068;2023-12-20T15:50:08;13.50;;;5.70;;
77217;SDS011;66214;51.302;17.068;2023-12-20T15:52:37;12.30;;;4.30;;
77217;SDS011;66214;51.302;17.068;2023-12-20T15:55:06;14.70;;;5.90;;
77217;SDS011;66214;51.302;17.068;2023-12-20T15:57:35;10.40;;;3.50;;
77217;SDS011;66214;51.302;17.068;2023-12-20T16:00:04;13.40;;;6.60;;
77217;SDS011;66214;51.302;17.068;2023-12-20T16:02:34;18.40;;;7.50;;